createdAt,value
2019-03-13T00:04:35.463Z,1.40
2019-03-13T00:09:30.523Z,1.37
2019-03-13T00:14:25.218Z,1.70
2019-03-13T00:19:19.938Z,1.67
2019-03-13T00:24:14.741Z,1.83
2019-03-13T00:29:09.457Z,0.90
2019-03-13T00:34:04.169Z,0.90
2019-03-13T00:38:59.052Z,0.90
2019-03-13T00:43:53.786Z,1.07
2019-03-13T00:48:48.494Z,0.87
2019-03-13T00:53:43.529Z,1.23
2019-03-13T00:58:38.238Z,0.90
2019-03-13T01:03:58.804Z,0.90
2019-03-13T01:08:53.591Z,1.17
2019-03-13T01:13:48.396Z,1.00
2019-03-13T01:18:43.111Z,1.10
2019-03-13T01:23:38.073Z,1.30
2019-03-13T01:28:32.787Z,1.10
2019-03-13T01:33:27.528Z,1.37
2019-03-13T01:38:22.340Z,1.60
2019-03-13T01:43:17.069Z,1.40
2019-03-13T01:48:11.861Z,1.30
2019-03-13T01:53:06.657Z,1.37
2019-03-13T01:58:01.389Z,1.40
2019-03-13T02:02:56.183Z,1.90
2019-03-13T02:07:50.896Z,0.97
2019-03-13T02:12:45.615Z,1.10
2019-03-13T02:17:40.323Z,1.33
2019-03-13T02:22:35.037Z,1.40
2019-03-13T02:27:29.748Z,1.60
2019-03-13T02:32:24.470Z,1.67
2019-03-13T02:37:19.181Z,1.50
2019-03-13T02:42:14.283Z,1.63
2019-03-13T02:47:09.005Z,1.80
2019-03-13T02:52:03.821Z,2.20
2019-03-13T02:56:58.614Z,1.60
2019-03-13T03:02:01.725Z,1.47
2019-03-13T03:06:56.481Z,1.40
2019-03-13T03:11:51.544Z,1.57
2019-03-13T03:16:46.253Z,1.43
2019-03-13T03:21:40.965Z,1.20
2019-03-13T03:26:35.760Z,1.40
2019-03-13T03:31:30.515Z,1.20
2019-03-13T03:36:25.232Z,1.10
2019-03-13T03:41:19.986Z,1.20
2019-03-13T03:46:14.965Z,1.27
2019-03-13T03:51:09.932Z,1.30
2019-03-13T03:56:04.982Z,1.27
2019-03-13T04:00:59.704Z,1.00
2019-03-13T04:05:54.487Z,1.30
2019-03-13T04:10:49.271Z,0.90
2019-03-13T04:15:43.988Z,1.00
2019-03-13T04:20:38.701Z,1.07
2019-03-13T04:25:37.256Z,1.03
2019-03-13T04:30:31.974Z,0.90
2019-03-13T04:35:26.925Z,1.27
2019-03-13T04:40:22.777Z,0.97
2019-03-13T04:45:17.424Z,0.80
2019-03-13T04:50:12.251Z,1.23
2019-03-13T04:55:07.242Z,0.93
2019-03-13T05:00:02.294Z,1.07
2019-03-13T05:04:57.151Z,1.10
2019-03-13T05:09:51.857Z,1.00
2019-03-13T05:14:46.588Z,0.73
2019-03-13T05:19:41.653Z,0.77
2019-03-13T05:24:36.371Z,0.70
2019-03-13T05:29:31.093Z,1.00
2019-03-13T05:34:26.150Z,0.87
2019-03-13T05:39:20.869Z,0.90
2019-03-13T05:44:15.588Z,0.90
2019-03-13T05:49:10.296Z,0.83
2019-03-13T05:54:05.096Z,0.87
2019-03-13T05:58:59.801Z,1.13
2019-03-13T06:03:54.514Z,1.53
2019-03-13T06:08:49.387Z,1.60
2019-03-13T06:13:47.432Z,1.60
2019-03-13T06:18:42.418Z,1.20
2019-03-13T06:23:37.155Z,1.20
2019-03-13T06:28:31.877Z,1.57
2019-03-13T06:33:26.590Z,1.93
2019-03-13T06:38:21.693Z,1.80
2019-03-13T06:43:16.515Z,1.60
2019-03-13T06:48:11.319Z,1.50
2019-03-13T06:53:07.679Z,1.70
2019-03-13T06:58:02.754Z,1.50
2019-03-13T07:03:06.002Z,1.67
2019-03-13T07:08:19.791Z,1.37
2019-03-13T07:13:19.919Z,1.83
2019-03-13T07:18:51.831Z,2.30
2019-03-13T07:24:14.706Z,2.00
2019-03-13T07:29:31.225Z,1.83
2019-03-13T07:34:48.226Z,2.00
2019-03-13T07:39:52.885Z,2.03
2019-03-13T07:44:56.322Z,1.80
2019-03-13T07:50:21.961Z,2.13
2019-03-13T07:55:37.835Z,2.70
2019-03-13T08:00:50.336Z,2.20
2019-03-13T08:06:04.104Z,2.20
2019-03-13T08:11:06.947Z,1.70
2019-03-13T08:16:26.918Z,1.90
2019-03-13T08:21:43.758Z,1.83
2019-03-13T08:26:48.375Z,1.77
2019-03-13T08:31:52.883Z,1.73
2019-03-13T08:37:09.466Z,1.70
2019-03-13T08:42:21.833Z,2.20
2019-03-13T08:47:25.452Z,1.63
2019-03-13T08:52:26.129Z,1.40
2019-03-13T08:57:38.644Z,2.17
2019-03-13T09:02:48.622Z,1.73
2019-03-13T09:08:17.609Z,1.77
2019-03-13T09:13:20.122Z,2.10
2019-03-13T09:18:40.003Z,2.27
2019-03-13T09:23:45.714Z,2.70
2019-03-13T09:29:01.430Z,2.67
2019-03-13T09:34:21.509Z,2.20
2019-03-13T09:39:26.130Z,1.60
2019-03-13T09:44:32.469Z,2.07
2019-03-13T09:49:55.290Z,1.70
2019-03-13T09:55:12.160Z,2.10
2019-03-13T10:00:25.684Z,1.77
2019-03-13T10:05:29.486Z,1.97
2019-03-13T10:10:28.905Z,2.10
2019-03-13T10:15:32.325Z,1.87
2019-03-13T10:20:41.210Z,1.93
2019-03-13T10:25:42.057Z,1.90
2019-03-13T10:30:55.980Z,1.83
2019-03-13T10:36:12.567Z,1.90
2019-03-13T10:41:13.189Z,1.83
2019-03-13T10:46:25.586Z,1.20
2019-03-13T10:51:36.971Z,1.70
2019-03-13T10:56:41.937Z,1.70
2019-03-13T11:01:45.331Z,2.10
2019-03-13T11:06:55.588Z,1.93
2019-03-13T11:12:03.861Z,1.60
2019-03-13T11:17:06.212Z,1.60
2019-03-13T11:22:19.994Z,1.50
2019-03-13T11:27:42.855Z,1.30
2019-03-13T11:33:06.803Z,1.60
2019-03-13T11:38:19.881Z,1.60
2019-03-13T11:43:46.005Z,2.00
2019-03-13T11:48:58.771Z,1.30
2019-03-13T11:54:01.161Z,1.63
2019-03-13T11:59:07.319Z,1.53
2019-03-13T12:04:14.332Z,1.87
2019-03-13T12:09:33.816Z,1.50
2019-03-13T12:14:46.617Z,1.93
2019-03-13T12:19:53.846Z,1.80
2019-03-13T12:24:56.869Z,1.90
2019-03-13T12:30:10.623Z,1.70
2019-03-13T12:35:16.678Z,2.10
2019-03-13T12:40:49.032Z,1.87
2019-03-13T12:45:48.496Z,1.90
2019-03-13T12:51:05.026Z,2.10
2019-03-13T12:56:17.369Z,1.90
2019-03-13T13:01:20.437Z,1.63
2019-03-13T13:06:27.461Z,1.40
2019-03-13T13:11:41.977Z,1.57
2019-03-13T13:16:54.807Z,2.17
2019-03-13T13:21:49.538Z,1.70
2019-03-13T13:26:44.345Z,1.70
2019-03-13T13:31:39.070Z,1.83
2019-03-13T13:36:33.883Z,2.40
2019-03-13T13:41:28.617Z,1.80
2019-03-13T13:46:28.860Z,1.97
2019-03-13T13:51:23.666Z,2.10
2019-03-13T13:56:18.379Z,2.00
2019-03-13T14:01:12.112Z,1.90
2019-03-13T14:06:06.568Z,2.07
2019-03-13T14:11:01.909Z,2.33
2019-03-13T14:16:02.951Z,2.20
2019-03-13T14:20:57.680Z,2.60
2019-03-13T14:25:52.468Z,2.27
2019-03-13T14:30:47.314Z,2.27
2019-03-13T14:35:42.103Z,2.43
2019-03-13T14:40:36.912Z,2.23
2019-03-13T14:45:31.659Z,2.60
2019-03-13T14:50:26.470Z,2.47
2019-03-13T14:55:21.755Z,2.50
2019-03-13T15:00:22.764Z,2.30
2019-03-13T15:05:17.558Z,1.87
2019-03-13T15:10:12.773Z,1.73
2019-03-13T15:15:08.248Z,1.90
2019-03-13T15:20:02.991Z,2.30
2019-03-13T15:24:57.721Z,1.77
2019-03-13T15:29:52.639Z,2.20
2019-03-13T15:34:47.447Z,1.77
2019-03-13T15:39:42.145Z,2.07
2019-03-13T15:44:36.889Z,1.90
2019-03-13T15:49:31.645Z,1.70
2019-03-13T15:54:26.374Z,1.90
2019-03-13T15:59:21.422Z,2.07
2019-03-13T16:04:16.797Z,2.50
2019-03-13T16:09:11.616Z,2.17
2019-03-13T16:14:06.586Z,2.10
2019-03-13T16:19:02.311Z,2.33
2019-03-13T16:23:57.030Z,2.30
2019-03-13T16:28:52.109Z,2.20
2019-03-13T16:33:46.857Z,2.47
2019-03-13T16:38:41.620Z,1.90
2019-03-13T16:43:38.390Z,2.30
2019-03-13T16:48:33.124Z,2.47
2019-03-13T16:53:27.861Z,2.50
2019-03-13T16:58:22.619Z,2.20
2019-03-13T17:03:17.318Z,2.57
2019-03-13T17:08:12.042Z,2.50
2019-03-13T17:13:07.610Z,2.40
2019-03-13T17:18:05.394Z,2.43
2019-03-13T17:23:00.124Z,2.90
2019-03-13T17:27:55.107Z,2.77
2019-03-13T17:32:50.246Z,3.53
2019-03-13T17:37:45.078Z,3.07
2019-03-13T17:42:39.811Z,3.10
2019-03-13T17:47:34.906Z,2.63
2019-03-13T17:52:30.147Z,2.47
2019-03-13T17:57:24.895Z,2.80
2019-03-13T18:02:19.941Z,3.00
2019-03-13T18:07:14.676Z,3.20
2019-03-13T18:12:09.719Z,2.70
2019-03-13T18:17:04.546Z,3.27
2019-03-13T18:21:59.278Z,2.47
2019-03-13T18:26:54.314Z,2.90
2019-03-13T18:31:49.044Z,3.40
2019-03-13T18:36:51.757Z,2.93
2019-03-13T18:41:46.632Z,3.97
2019-03-13T18:46:41.370Z,3.37
2019-03-13T18:51:36.187Z,4.23
2019-03-13T18:56:31.290Z,3.73
2019-03-13T19:01:26.032Z,3.33
2019-03-13T19:06:20.790Z,3.90
2019-03-13T19:11:15.593Z,3.30
2019-03-13T19:16:10.415Z,3.60
2019-03-13T19:21:05.421Z,3.20
2019-03-13T19:26:00.181Z,2.73
2019-03-13T19:30:54.964Z,2.20
2019-03-13T19:35:49.694Z,2.00
2019-03-13T19:40:44.507Z,3.73
2019-03-13T19:45:40.799Z,2.67
2019-03-13T19:50:35.547Z,1.90
2019-03-13T19:55:30.309Z,2.20
2019-03-13T20:00:25.372Z,1.87
2019-03-13T20:05:20.168Z,2.00
2019-03-13T20:10:17.280Z,1.20
2019-03-13T20:15:13.550Z,1.27
2019-03-13T20:20:10.553Z,1.30
2019-03-13T20:25:06.270Z,1.10
2019-03-13T20:30:00.990Z,1.17
2019-03-13T20:34:57.788Z,1.30
2019-03-13T20:39:52.857Z,1.10
2019-03-13T20:44:47.993Z,1.20
2019-03-13T20:49:42.710Z,1.03
2019-03-13T20:54:37.493Z,1.10
2019-03-13T20:59:32.787Z,1.10
2019-03-13T21:04:27.817Z,1.30
2019-03-13T21:09:22.551Z,1.50
2019-03-13T21:14:17.271Z,1.20
2019-03-13T21:19:12.007Z,0.93
2019-03-13T21:24:07.045Z,1.23
2019-03-13T21:29:01.814Z,1.10
2019-03-13T21:33:56.528Z,1.10
2019-03-13T21:38:51.256Z,0.90
2019-03-13T21:43:46.002Z,0.87
2019-03-13T21:48:41.012Z,1.33
2019-03-13T21:53:35.747Z,1.10
2019-03-13T21:58:31.473Z,1.10
2019-03-13T22:03:29.810Z,1.50
2019-03-13T22:08:22.633Z,1.00
2019-03-13T22:13:17.660Z,1.20
2019-03-13T22:18:12.392Z,1.53
2019-03-13T22:23:07.496Z,2.07
2019-03-13T22:28:02.255Z,1.50
2019-03-13T22:32:57.336Z,1.90
2019-03-13T22:37:52.159Z,1.43
2019-03-13T22:42:47.104Z,1.70
2019-03-13T22:47:43.287Z,1.53
2019-03-13T22:52:38.314Z,2.10
2019-03-13T22:57:33.147Z,2.17
2019-03-13T23:02:28.585Z,2.00
2019-03-13T23:07:23.553Z,1.70
2019-03-13T23:12:18.376Z,2.60
2019-03-13T23:17:13.539Z,2.47
2019-03-13T23:22:08.324Z,2.00
2019-03-13T23:27:03.199Z,2.83
2019-03-13T23:31:58.268Z,2.67
2019-03-13T23:36:53.306Z,2.63
2019-03-13T23:41:48.173Z,2.77
2019-03-13T23:46:43.076Z,3.30
2019-03-13T23:51:37.943Z,3.00
2019-03-13T23:56:32.957Z,2.70
